Time;durP1;ratioP1;P1;durP2;ratioP2;P2;SDS_P1;SDS_P2;PMS_P1;PMS_P2;Temp;Humidity;BMP_temperature;BMP_pressure;BME280_temperature;BME280_humidity;BME280_pressure;Samples;Min_cycle;Max_cycle;Signal;HPM_P1;HPM_P2
2023/07/30 00:00:12;;;;;;;;;;;;;;;16.13;53.59;100544.09;5095864;28;1065;-57
2023/07/30 00:02:37;;;;;;;;;;;;;;;17.15;54.84;100547.66;5095698;28;999;-57
2023/07/30 00:05:03;;;;;;;;;;;;;;;17.00;55.46;100549.38;5095641;28;1121;-58
2023/07/30 00:07:28;;;;;;;;;;;;;;;16.67;55.54;100534.38;5095242;28;909;-58
2023/07/30 00:09:54;;;;;;;;;;;;;;;16.57;55.16;100546.22;5095753;28;1981;-58
2023/07/30 00:12:19;;;;;;;;;;;;;;;16.51;54.69;100544.56;5095909;28;1121;-57
2023/07/30 00:14:45;;;;;;;;;;;;;;;16.41;54.65;100538.03;5098493;28;982;-57
2023/07/30 00:17:10;;;;;;;;;;;;;;;16.42;54.28;100536.94;5099398;28;1041;-53
2023/07/30 00:19:36;;;;;;;;;;;;;;;16.33;54.50;100535.03;5099052;28;1130;-55
2023/07/30 00:22:02;;;;;;;;;;;;;;;16.29;54.35;100531.19;5099553;28;1047;-55
2023/07/30 00:24:27;;;;;;;;;;;;;;;16.24;54.00;100532.84;5099065;28;1027;-53
2023/07/30 00:26:53;;;;;;;;;;;;;;;16.22;53.89;100528.72;5098843;28;1124;-54
2023/07/30 00:29:19;;;;;;;;;;;;;;;16.22;53.95;100537.78;5099217;28;1976;-52
2023/07/30 00:31:45;;;;;;;;;;;;;;;16.25;53.60;100536.41;5098978;28;893;-54
2023/07/30 00:34:10;;;;;;;;;;;;;;;16.19;53.67;100527.34;5099055;28;1144;-54
2023/07/30 00:36:36;;;;;;;;;;;;;;;16.15;53.96;100533.69;5098778;28;1109;-55
2023/07/30 00:39:01;;;;;;;;;;;;;;;16.23;54.15;100528.44;5099122;28;1074;-55
2023/07/30 00:41:27;;;;;;;;;;;;;;;17.43;55.10;100530.44;5098991;28;1118;-49
2023/07/30 00:43:52;;;;;;;;;;;;;;;17.03;55.68;100526.03;5098652;28;1038;-53
2023/07/30 00:46:18;;;;;;;;;;;;;;;16.77;55.43;100528.84;5098915;28;1027;-51
2023/07/30 00:48:43;;;;;;;;;;;;;;;16.65;55.36;100528.31;5098405;28;1152;-51
2023/07/30 00:51:09;;;;;;;;;;;;;;;16.55;55.03;100518.19;5098943;28;1969;-46
2023/07/30 00:53:36;;;;;;;;;;;;;;;16.49;54.56;100522.06;5095525;28;1229;-54
2023/07/30 00:56:02;;;;;;;;;;;;;;;16.42;54.58;100523.22;5090054;28;929;-56
2023/07/30 00:58:27;;;;;;;;;;;;;;;16.36;54.38;100521.56;5090465;28;1023;-55
2023/07/30 01:00:53;;;;;;;;;;;;;;;16.36;54.47;100526.25;5098865;28;1161;-56
2023/07/30 01:03:18;;;;;;;;;;;;;;;16.28;54.21;100522.13;5080368;28;1217;-55
2023/07/30 01:05:44;;;;;;;;;;;;;;;16.28;54.10;100524.88;5078071;28;1134;-55
2023/07/30 01:08:10;;;;;;;;;;;;;;;16.32;53.92;100519.66;5097715;28;1158;-56
2023/07/30 01:10:36;;;;;;;;;;;;;;;16.22;53.96;100520.50;5098390;28;1989;-56
2023/07/30 01:13:01;;;;;;;;;;;;;;;16.20;54.04;100511.72;5077306;28;1014;-56
2023/07/30 01:15:28;;;;;;;;;;;;;;;16.21;53.98;100516.09;5080081;28;1129;-56
2023/07/30 01:17:53;;;;;;;;;;;;;;;16.16;53.93;100516.94;5097651;28;1042;-55
2023/07/30 01:20:19;;;;;;;;;;;;;;;16.06;54.23;100520.53;5098186;28;948;-53
2023/07/30 01:22:44;;;;;;;;;;;;;;;16.16;53.58;100519.69;5098071;28;1081;-56
2023/07/30 01:25:10;;;;;;;;;;;;;;;17.17;55.16;100516.03;5097947;28;1095;-55
2023/07/30 01:27:40;;;;;;;;;;;;;;;17.15;55.39;100514.69;5084046;28;1141;-55
2023/07/30 01:30:21;;;;;;;;;;;;;;;16.70;55.82;100512.66;5080101;28;1910;-56
2023/07/30 01:32:48;;;;;;;;;;;;;;;16.54;55.21;100509.16;5079734;28;1110;-56
2023/07/30 01:35:14;;;;;;;;;;;;;;;16.50;55.10;100510.00;5074114;28;1406;-56
2023/07/30 01:37:39;;;;;;;;;;;;;;;16.46;54.58;100517.16;5082012;28;1440;-56
2023/07/30 01:40:05;;;;;;;;;;;;;;;16.43;54.30;100524.00;5079407;28;1348;-56
2023/07/30 01:42:31;;;;;;;;;;;;;;;16.38;54.28;100522.13;5079689;28;1363;-56
2023/07/30 01:44:57;;;;;;;;;;;;;;;16.37;53.91;100517.72;5094536;28;1293;-56
2023/07/30 01:47:23;;;;;;;;;;;;;;;16.34;53.72;100521.03;5097354;28;1563;-57
2023/07/30 01:49:48;;;;;;;;;;;;;;;16.18;54.25;100514.72;5092482;28;1910;-56
2023/07/30 01:52:14;;;;;;;;;;;;;;;16.20;53.83;100515.28;5097513;28;1105;-55
2023/07/30 01:54:39;;;;;;;;;;;;;;;16.15;53.87;100517.22;5097615;28;1046;-55
2023/07/30 01:57:05;;;;;;;;;;;;;;;16.13;53.78;100524.91;5096906;28;1023;-56
2023/07/30 01:59:31;;;;;;;;;;;;;;;16.19;53.88;100518.31;5079323;28;1154;-56
2023/07/30 02:01:56;;;;;;;;;;;;;;;16.09;53.89;100516.41;5079087;28;1206;-56
2023/07/30 02:04:22;;;;;;;;;;;;;;;16.04;53.89;100517.22;5097600;28;1157;-55
2023/07/30 02:06:48;;;;;;;;;;;;;;;16.13;53.73;100513.91;5097712;28;1129;-55
2023/07/30 02:09:13;;;;;;;;;;;;;;;17.32;54.95;100512.38;5096659;28;1964;-55
2023/07/30 02:11:40;;;;;;;;;;;;;;;17.10;55.58;100505.34;5079279;28;1324;-55
2023/07/30 02:14:06;;;;;;;;;;;;;;;16.81;55.34;100507.94;5097130;28;1221;-56
2023/07/30 02:16:31;;;;;;;;;;;;;;;16.60;55.08;100508.03;5078767;28;1103;-56
2023/07/30 02:18:57;;;;;;;;;;;;;;;16.60;54.89;100518.19;5096928;28;1114;-56
2023/07/30 02:21:22;;;;;;;;;;;;;;;16.47;54.51;100507.81;5078331;28;898;-56
2023/07/30 02:23:48;;;;;;;;;;;;;;;16.46;54.40;100517.16;5096713;28;1114;-56
2023/07/30 02:26:13;;;;;;;;;;;;;;;16.36;54.27;100513.31;5078890;28;1227;-56
2023/07/30 02:28:39;;;;;;;;;;;;;;;16.30;54.13;100513.59;5078802;28;1111;-56
2023/07/30 02:31:05;;;;;;;;;;;;;;;16.31;53.96;100509.78;5096699;28;1910;-55
2023/07/30 02:33:30;;;;;;;;;;;;;;;16.19;54.23;100512.84;5096565;28;920;-56
2023/07/30 02:35:56;;;;;;;;;;;;;;;16.73;55.00;100516.78;5096350;28;983;-56
2023/07/30 02:38:22;;;;;;;;;;;;;;;17.28;55.19;100523.13;5096500;28;1158;-56
2023/07/30 02:40:48;;;;;;;;;;;;;;;16.85;55.34;100513.72;5091106;28;1196;-55
2023/07/30 02:43:13;;;;;;;;;;;;;;;16.66;55.30;100522.59;5096883;28;947;-56
2023/07/30 02:45:39;;;;;;;;;;;;;;;16.54;55.05;100527.56;5078113;28;1098;-55
2023/07/30 02:48:05;;;;;;;;;;;;;;;16.49;54.81;100533.06;5096748;28;1182;-56
2023/07/30 02:50:30;;;;;;;;;;;;;;;16.38;54.52;100527.59;5096314;28;1886;-56
2023/07/30 02:52:56;;;;;;;;;;;;;;;16.42;54.27;100528.69;5096623;28;1244;-56
2023/07/30 02:55:22;;;;;;;;;;;;;;;16.32;54.22;100534.19;5096516;28;1133;-57
2023/07/30 02:57:47;;;;;;;;;;;;;;;16.29;54.19;100528.44;5096415;28;861;-54
2023/07/30 03:00:13;;;;;;;;;;;;;;;16.24;53.78;100521.88;5067429;28;1465;-52
2023/07/30 03:02:39;;;;;;;;;;;;;;;16.24;53.94;100529.25;5078452;28;1215;-55
2023/07/30 03:05:05;;;;;;;;;;;;;;;16.21;53.63;100535.31;5078179;28;1292;-53
2023/07/30 03:07:31;;;;;;;;;;;;;;;16.17;53.57;100536.97;5064084;28;1455;-53
2023/07/30 03:09:56;;;;;;;;;;;;;;;16.14;53.87;100527.34;5096369;28;1901;-52
2023/07/30 03:12:22;;;;;;;;;;;;;;;16.15;53.55;100539.16;5096312;28;1114;-52
2023/07/30 03:14:47;;;;;;;;;;;;;;;16.36;54.49;100532.53;5096655;28;1086;-54
2023/07/30 03:17:13;;;;;;;;;;;;;;;17.36;54.73;100529.94;5096113;28;1097;-52
2023/07/30 03:19:38;;;;;;;;;;;;;;;16.80;55.35;100527.47;5078572;28;1275;-50
2023/07/30 03:22:04;;;;;;;;;;;;;;;16.60;55.14;100526.44;5077779;28;1122;-51
2023/07/30 03:24:30;;;;;;;;;;;;;;;16.51;54.85;100539.06;5096420;28;1078;-52
2023/07/30 03:26:56;;;;;;;;;;;;;;;16.43;54.44;100538.56;5096415;28;1046;-50
2023/07/30 03:29:21;;;;;;;;;;;;;;;16.32;54.38;100534.19;5096372;28;1972;-53
2023/07/30 03:31:47;;;;;;;;;;;;;;;16.28;54.34;100538.59;5095950;28;1141;-53
2023/07/30 03:34:12;;;;;;;;;;;;;;;16.28;54.22;100535.03;5083581;28;873;-55
2023/07/30 03:36:39;;;;;;;;;;;;;;;16.24;54.10;100532.00;5078122;28;1119;-51
2023/07/30 03:39:04;;;;;;;;;;;;;;;16.23;54.03;100538.63;5096135;28;1064;-52
2023/07/30 03:41:30;;;;;;;;;;;;;;;16.18;54.00;100535.88;5095976;28;1057;-53
2023/07/30 03:43:55;;;;;;;;;;;;;;;16.17;53.72;100539.69;5096076;28;1097;-51
2023/07/30 03:46:21;;;;;;;;;;;;;;;16.03;54.13;100534.81;5095999;28;1030;-47
2023/07/30 03:48:46;;;;;;;;;;;;;;;16.13;53.58;100538.59;5078926;28;1309;-50
2023/07/30 03:51:12;;;;;;;;;;;;;;;16.14;53.65;100537.53;5099699;28;1905;-48
2023/07/30 03:53:39;;;;;;;;;;;;;;;16.70;54.81;100540.09;5081093;28;1185;-54
2023/07/30 03:56:04;;;;;;;;;;;;;;;17.45;54.86;100538.41;5085020;28;1288;-49
2023/07/30 03:58:30;;;;;;;;;;;;;;;16.87;55.30;100534.31;5099998;28;1190;-52
2023/07/30 04:00:56;;;;;;;;;;;;;;;16.61;55.49;100530.81;5088315;28;1189;-51
2023/07/30 04:03:22;;;;;;;;;;;;;;;16.54;54.98;100538.53;5099640;28;987;-50
2023/07/30 04:05:47;;;;;;;;;;;;;;;16.48;54.70;100537.72;5081601;28;1101;-51
2023/07/30 04:08:13;;;;;;;;;;;;;;;16.41;54.61;100537.19;5079934;28;1257;-49
2023/07/30 04:10:38;;;;;;;;;;;;;;;16.44;54.38;100531.16;5088494;28;1970;-49
2023/07/30 04:13:04;;;;;;;;;;;;;;;16.33;54.44;100532.28;5080852;28;1011;-47
2023/07/30 04:15:30;;;;;;;;;;;;;;;16.30;54.40;100530.06;5098100;28;2564;-45
2023/07/30 04:17:55;;;;;;;;;;;;;;;16.29;53.97;100534.75;5098641;28;2211;-49
2023/07/30 04:20:21;;;;;;;;;;;;;;;16.30;53.85;100535.56;5098479;28;2037;-47
2023/07/30 04:22:46;;;;;;;;;;;;;;;16.24;53.93;100532.84;5095091;28;2184;-48
2023/07/30 04:25:12;;;;;;;;;;;;;;;16.20;53.91;100545.47;5093535;28;2194;-48
2023/07/30 04:27:38;;;;;;;;;;;;;;;16.19;53.88;100543.00;5080321;28;1967;-48
2023/07/30 04:30:04;;;;;;;;;;;;;;;16.18;53.85;100542.16;5080181;28;2066;-51
2023/07/30 04:32:30;;;;;;;;;;;;;;;16.16;53.86;100549.88;5096326;28;1110;-49
2023/07/30 04:34:56;;;;;;;;;;;;;;;16.15;53.88;100548.22;5087707;28;995;-49
2023/07/30 04:37:21;;;;;;;;;;;;;;;16.13;53.87;100546.84;5080329;28;1330;-50
2023/07/30 04:39:47;;;;;;;;;;;;;;;16.13;53.83;100546.84;5080561;28;1410;-50
2023/07/30 04:42:15;;;;;;;;;;;;;;;16.45;54.28;100549.25;5080602;28;1222;-51
2023/07/30 04:44:41;;;;;;;;;;;;;;;17.30;54.68;100553.06;5079676;28;1632;-50
2023/07/30 04:47:13;;;;;;;;;;;;;;;16.82;55.21;100556.28;5080341;28;1241;-47
2023/07/30 04:49:40;;;;;;;;;;;;;;;17.37;55.71;100561.81;5076971;28;1909;-51
2023/07/30 04:52:06;;;;;;;;;;;;;;;16.99;55.33;100561.47;5076760;28;1177;-51
2023/07/30 04:54:32;;;;;;;;;;;;;;;17.94;54.81;100561.44;5060448;28;1154;-45
2023/07/30 04:56:58;;;;;;;;;;;;;;;18.44;53.72;100559.31;5076266;28;1081;-47
2023/07/30 04:59:23;;;;;;;;;;;;;;;17.45;53.79;100555.72;5076139;28;1158;-47
2023/07/30 05:01:49;;;;;;;;;;;;;;;17.66;54.14;100561.06;5077303;28;2567;-49
2023/07/30 05:04:14;;;;;;;;;;;;;;;17.85;54.57;100563.13;5077750;28;1121;-46
2023/07/30 05:06:40;;;;;;;;;;;;;;;17.39;52.92;100565.09;5077938;28;1316;-47
2023/07/30 05:09:05;;;;;;;;;;;;;;;18.52;54.03;100557.03;5077713;28;1010;-50
2023/07/30 05:11:31;;;;;;;;;;;;;;;17.86;53.40;100571.09;5077623;28;1909;-50
2023/07/30 05:13:57;;;;;;;;;;;;;;;17.53;51.83;100570.78;5077958;28;1026;-47
2023/07/30 05:16:22;;;;;;;;;;;;;;;18.30;53.02;100561.94;5078020;28;1093;-45
2023/07/30 05:18:48;;;;;;;;;;;;;;;17.71;52.24;100574.81;5078405;28;1153;-49
2023/07/30 05:21:13;;;;;;;;;;;;;;;17.52;50.93;100560.09;5077336;28;1097;-50
2023/07/30 05:23:39;;;;;;;;;;;;;;;17.39;49.80;100564.25;5069080;28;1011;-49
2023/07/30 05:26:04;;;;;;;;;;;;;;;18.20;51.52;100566.72;5073886;28;1165;-49
2023/07/30 05:28:30;;;;;;;;;;;;;;;17.70;51.17;100570.41;5078101;28;1094;-49
2023/07/30 05:30:55;;;;;;;;;;;;;;;17.52;49.80;100569.16;5077835;28;1905;-52
2023/07/30 05:33:21;;;;;;;;;;;;;;;18.20;50.97;100574.97;5077649;28;1077;-51
2023/07/30 05:35:47;;;;;;;;;;;;;;;17.77;50.85;100575.59;5076993;28;1025;-50
2023/07/30 05:38:13;;;;;;;;;;;;;;;17.59;49.57;100577.88;5077419;28;1102;-51
2023/07/30 05:40:39;;;;;;;;;;;;;;;17.50;49.09;100587.03;5077574;28;1093;-53
2023/07/30 05:43:04;;;;;;;;;;;;;;;17.40;48.40;100579.66;5077436;28;1517;-51
2023/07/30 05:45:30;;;;;;;;;;;;;;;17.34;48.02;100576.13;5077022;28;1153;-52
2023/07/30 05:47:55;;;;;;;;;;;;;;;17.32;47.69;100589.34;5077084;28;1026;-53
2023/07/30 05:50:21;;;;;;;;;;;;;;;17.25;47.59;100575.91;5097548;28;1984;-52
2023/07/30 05:52:46;;;;;;;;;;;;;;;18.21;49.21;100574.66;5097347;28;1082;-52
2023/07/30 05:55:12;;;;;;;;;;;;;;;17.89;49.91;100572.44;5097583;28;1030;-52
2023/07/30 05:57:37;;;;;;;;;;;;;;;17.63;49.34;100578.16;5097806;28;1101;-48
2023/07/30 06:00:03;;;;;;;;;;;;;;;17.47;48.71;100582.09;5097316;28;1092;-53
2023/07/30 06:02:37;;;;;;;;;;;;;;;17.45;47.83;100582.38;5097411;28;1308;-50
2023/07/30 06:05:03;;;;;;;;;;;;;;;18.40;49.39;100572.03;5097350;28;1124;-53
2023/07/30 06:07:28;;;;;;;;;;;;;;;17.78;49.67;100580.78;5097298;28;1146;-47
2023/07/30 06:09:54;;;;;;;;;;;;;;;17.67;49.06;100570.97;5097372;28;1910;-51
2023/07/30 06:12:19;;;;;;;;;;;;;;;17.57;48.22;100579.28;5096105;28;1133;-53
2023/07/30 06:14:45;;;;;;;;;;;;;;;17.55;47.67;100571.31;5097392;28;1426;-52
2023/07/30 06:17:11;;;;;;;;;;;;;;;17.47;47.23;100574.66;5096732;28;1129;-52
2023/07/30 06:19:36;;;;;;;;;;;;;;;17.89;47.96;100578.78;5097079;28;1022;-48
2023/07/30 06:22:02;;;;;;;;;;;;;;;17.90;48.58;100577.66;5096233;28;1070;-55
2023/07/30 06:24:27;;;;;;;;;;;;;;;17.62;48.49;100573.75;5097023;28;1122;-50
2023/07/30 06:26:53;;;;;;;;;;;;;;;17.57;47.95;100579.28;5096599;28;1117;-53
2023/07/30 06:29:18;;;;;;;;;;;;;;;17.58;47.13;100581.72;5096618;28;1109;-52
2023/07/30 06:31:44;;;;;;;;;;;;;;;17.48;46.98;100578.25;5097348;28;2216;-53
2023/07/30 06:34:10;;;;;;;;;;;;;;;17.53;46.85;100572.69;5096431;28;899;-52
2023/07/30 06:36:35;;;;;;;;;;;;;;;18.29;47.97;100568.53;5096961;28;1206;-52
2023/07/30 06:39:01;;;;;;;;;;;;;;;17.85;48.48;100579.63;5096592;28;1059;-51
2023/07/30 06:41:26;;;;;;;;;;;;;;;17.70;48.01;100573.16;5096830;28;1058;-51
2023/07/30 06:43:52;;;;;;;;;;;;;;;17.57;47.66;100571.03;5096469;28;1053;-52
2023/07/30 06:46:17;;;;;;;;;;;;;;;18.43;48.09;100574.19;5096859;28;850;-51
2023/07/30 06:48:43;;;;;;;;;;;;;;;17.88;48.76;100576.31;5096526;28;1136;-51
2023/07/30 06:51:09;;;;;;;;;;;;;;;17.73;48.03;100564.31;5096430;28;1967;-54
2023/07/30 06:53:35;;;;;;;;;;;;;;;17.79;47.45;100559.59;5096224;28;1071;-52
2023/07/30 06:56:00;;;;;;;;;;;;;;;17.59;47.30;100555.91;5096568;28;1197;-52
2023/07/30 06:58:26;;;;;;;;;;;;;;;17.52;47.29;100554.59;5096334;28;1237;-51
2023/07/30 07:00:51;;;;;;;;;;;;;;;18.48;48.54;100562.28;5096037;28;1122;-52
2023/07/30 07:03:17;;;;;;;;;;;;;;;18.02;48.35;100555.31;5096552;28;1125;-49
2023/07/30 07:05:42;;;;;;;;;;;;;;;17.85;48.14;100554.88;5096357;28;1038;-52
2023/07/30 07:08:08;;;;;;;;;;;;;;;17.78;47.63;100557.94;5096198;28;1108;-50
2023/07/30 07:10:33;;;;;;;;;;;;;;;17.71;47.10;100558.31;5096127;28;1909;-52
2023/07/30 07:12:59;;;;;;;;;;;;;;;17.70;46.92;100553.09;5095741;28;1085;-53
2023/07/30 07:15:25;;;;;;;;;;;;;;;17.58;46.97;100547.94;5096353;28;1054;-53
2023/07/30 07:17:50;;;;;;;;;;;;;;;17.61;46.53;100550.09;5095906;28;1030;-50
2023/07/30 07:20:16;;;;;;;;;;;;;;;17.62;46.51;100554.50;5096427;28;1122;-49
2023/07/30 07:22:41;;;;;;;;;;;;;;;17.56;46.28;100552.91;5097594;28;1051;-48
2023/07/30 07:25:07;;;;;;;;;;;;;;;17.52;46.30;100549.09;5100752;28;1000;-54
2023/07/30 07:27:33;;;;;;;;;;;;;;;17.58;46.16;100553.44;5100125;28;1133;-51
2023/07/30 07:29:59;;;;;;;;;;;;;;;18.02;47.21;100549.81;5100355;28;1910;-56
2023/07/30 07:32:25;;;;;;;;;;;;;;;17.95;48.25;100541.09;5100123;28;1117;-50
2023/07/30 07:34:50;;;;;;;;;;;;;;;17.77;47.72;100557.13;5099842;28;864;-52
2023/07/30 07:37:18;;;;;;;;;;;;;;;17.73;47.28;100550.56;5100026;28;1141;-51
2023/07/30 07:39:44;;;;;;;;;;;;;;;17.65;47.11;100555.88;5100100;28;1113;-51
2023/07/30 07:42:09;;;;;;;;;;;;;;;17.61;46.66;100553.69;5100162;28;1089;-53
2023/07/30 07:44:35;;;;;;;;;;;;;;;18.49;47.49;100554.88;5099673;28;1100;-56
2023/07/30 07:47:01;;;;;;;;;;;;;;;17.94;48.21;100548.50;5097676;28;1302;-53
2023/07/30 07:49:26;;;;;;;;;;;;;;;17.80;47.87;100544.75;5081306;28;1968;-53
2023/07/30 07:51:52;;;;;;;;;;;;;;;17.75;47.33;100542.88;5099932;28;1050;-50
2023/07/30 07:54:17;;;;;;;;;;;;;;;17.73;46.99;100547.81;5099905;28;1118;-53
2023/07/30 07:56:43;;;;;;;;;;;;;;;17.74;46.39;100541.22;5099653;28;1183;-53
2023/07/30 07:59:08;;;;;;;;;;;;;;;17.67;46.70;100535.22;5099679;28;843;-53
2023/07/30 08:01:34;;;;;;;;;;;;;;;17.61;46.38;100531.69;5099467;28;1111;-54
2023/07/30 08:04:00;;;;;;;;;;;;;;;17.60;46.59;100532.00;5100276;28;1130;-53
2023/07/30 08:06:25;;;;;;;;;;;;;;;18.53;47.71;100542.97;5099503;28;1204;-55
2023/07/30 08:08:51;;;;;;;;;;;;;;;18.12;48.54;100541.47;5100026;28;1051;-52
2023/07/30 08:11:16;;;;;;;;;;;;;;;17.88;48.28;100537.78;5098539;28;1980;-53
2023/07/30 08:13:42;;;;;;;;;;;;;;;17.90;47.52;100539.16;5099716;28;1096;-52
2023/07/30 08:16:07;;;;;;;;;;;;;;;17.80;47.22;100531.00;5099728;28;1189;-52
2023/07/30 08:18:33;;;;;;;;;;;;;;;17.84;46.92;100534.81;5099646;28;1137;-54
2023/07/30 08:20:59;;;;;;;;;;;;;;;17.71;46.86;100541.78;5099230;28;1146;-47
2023/07/30 08:23:25;;;;;;;;;;;;;;;17.73;46.58;100536.81;5095773;28;902;-50
2023/07/30 08:25:51;;;;;;;;;;;;;;;17.68;46.83;100536.84;5099586;28;1165;-52
2023/07/30 08:28:16;;;;;;;;;;;;;;;18.03;47.39;100545.13;5099490;28;1099;-53
2023/07/30 08:30:42;;;;;;;;;;;;;;;18.40;48.47;100533.47;5083764;28;1898;-55
2023/07/30 08:33:07;;;;;;;;;;;;;;;18.10;48.28;100527.19;5098957;28;1280;-55
2023/07/30 08:35:33;;;;;;;;;;;;;;;18.00;47.60;100538.28;5096911;28;1114;-53
2023/07/30 08:37:59;;;;;;;;;;;;;;;17.97;47.46;100538.03;5093121;28;1089;-54
2023/07/30 08:40:24;;;;;;;;;;;;;;;17.93;46.95;100540.53;5092608;28;1201;-57
2023/07/30 08:42:51;;;;;;;;;;;;;;;17.82;46.94;100538.97;5078239;28;1094;-56
2023/07/30 08:45:16;;;;;;;;;;;;;;;17.88;46.50;100540.53;5078651;28;1059;-54
2023/07/30 08:47:42;;;;;;;;;;;;;;;17.82;46.17;100537.00;5098156;28;1206;-54
2023/07/30 08:50:08;;;;;;;;;;;;;;;17.71;46.39;100541.78;5098845;28;1905;-54
2023/07/30 08:52:33;;;;;;;;;;;;;;;17.74;46.20;100541.22;5079205;28;1245;-54
2023/07/30 08:55:01;;;;;;;;;;;;;;;17.68;46.35;100536.84;5073390;28;1110;-56
2023/07/30 08:57:26;;;;;;;;;;;;;;;17.65;46.12;100531.94;5098149;28;1023;-57
2023/07/30 08:59:59;;;;;;;;;;;;;;;17.71;46.04;100540.97;5077718;28;1082;-54
2023/07/30 09:02:37;;;;;;;;;;;;;;;17.61;46.06;100528.09;5078796;28;1075;-55
2023/07/30 09:05:03;;;;;;;;;;;;;;;17.58;46.35;100520.44;5075481;28;1035;-54
2023/07/30 09:07:28;;;;;;;;;;;;;;;17.63;46.08;100528.66;5089799;28;1174;-51
2023/07/30 09:09:54;;;;;;;;;;;;;;;17.65;45.88;100515.44;5091853;28;1976;-54
2023/07/30 09:12:20;;;;;;;;;;;;;;;17.62;45.96;100518.75;5077503;28;825;-55
2023/07/30 09:14:46;;;;;;;;;;;;;;;17.68;45.86;100512.09;5073627;28;1113;-56
2023/07/30 09:17:18;;;;;;;;;;;;;;;17.56;46.38;100509.72;5071932;28;1042;-55
2023/07/30 09:19:44;;;;;;;;;;;;;;;17.52;46.27;100500.41;5094269;28;1085;-56
2023/07/30 09:22:10;;;;;;;;;;;;;;;17.51;46.17;100509.75;5097915;28;1110;-54
2023/07/30 09:24:36;;;;;;;;;;;;;;;17.58;46.27;100514.94;5084489;28;913;-56
2023/07/30 09:27:02;;;;;;;;;;;;;;;17.61;46.07;100511.63;5096219;28;1158;-56
2023/07/30 09:29:27;;;;;;;;;;;;;;;17.54;46.09;100508.38;5084668;28;1141;-57
2023/07/30 09:31:56;;;;;;;;;;;;;;;17.60;45.93;100512.75;5098105;28;1905;-57
2023/07/30 09:34:22;;;;;;;;;;;;;;;17.47;46.26;100508.69;5081569;28;1057;-56
2023/07/30 09:36:50;;;;;;;;;;;;;;;17.51;45.96;100503.44;5077734;28;873;-52
2023/07/30 09:39:22;;;;;;;;;;;;;;;17.50;45.97;100501.81;5093878;28;1143;-51
2023/07/30 09:41:48;;;;;;;;;;;;;;;18.42;47.20;100506.47;5095949;28;1042;-56
2023/07/30 09:44:16;;;;;;;;;;;;;;;18.10;48.15;100501.59;5084307;28;1102;-58
2023/07/30 09:46:46;;;;;;;;;;;;;;;17.93;47.86;100499.28;5088154;28;1185;-56
2023/07/30 09:49:12;;;;;;;;;;;;;;;17.88;47.39;100507.53;5084979;28;1154;-54
2023/07/30 09:51:38;;;;;;;;;;;;;;;17.76;47.06;100494.19;5097546;28;1980;-54
2023/07/30 09:54:04;;;;;;;;;;;;;;;17.81;46.70;100504.31;5092941;28;1059;-56
2023/07/30 09:56:30;;;;;;;;;;;;;;;17.73;46.53;100506.56;5079560;28;1206;-56
2023/07/30 09:58:55;;;;;;;;;;;;;;;17.68;46.41;100503.84;5077617;28;999;-56
2023/07/30 10:01:21;;;;;;;;;;;;;;;17.72;46.39;100502.16;5078999;28;1127;-56
2023/07/30 10:03:46;;;;;;;;;;;;;;;17.73;46.20;100492.00;5066148;28;1083;-56
2023/07/30 10:06:12;;;;;;;;;;;;;;;17.71;46.04;100496.97;5076001;28;1588;-56
2023/07/30 10:08:38;;;;;;;;;;;;;;;17.72;46.23;100499.41;5079401;28;1166;-54
2023/07/30 10:11:05;;;;;;;;;;;;;;;17.66;46.26;100488.78;5095527;28;2212;-56
2023/07/30 10:13:30;;;;;;;;;;;;;;;17.63;46.24;100492.91;5072590;28;1185;-57
2023/07/30 10:15:58;;;;;;;;;;;;;;;17.66;46.10;100488.78;5072711;28;1088;-56
2023/07/30 10:18:25;;;;;;;;;;;;;;;17.57;46.36;100492.13;5076893;28;1080;-56
2023/07/30 10:20:54;;;;;;;;;;;;;;;17.56;46.25;100486.94;5090483;28;1166;-56
2023/07/30 10:23:20;;;;;;;;;;;;;;;17.62;46.18;100485.78;5096822;28;1022;-56
2023/07/30 10:25:49;;;;;;;;;;;;;;;17.63;46.24;100484.66;5078887;28;1034;-56
2023/07/30 10:28:30;;;;;;;;;;;;;;;17.63;46.05;100484.66;5089526;28;1169;-54
2023/07/30 10:30:56;;;;;;;;;;;;;;;17.59;46.24;100478.09;5092617;28;1960;-57
2023/07/30 10:33:21;;;;;;;;;;;;;;;17.56;46.26;100485.00;5083546;28;1122;-56
2023/07/30 10:35:47;;;;;;;;;;;;;;;17.66;46.02;100489.59;5077004;28;1134;-56
2023/07/30 10:38:14;;;;;;;;;;;;;;;17.55;46.17;100479.78;5090410;28;1130;-55
2023/07/30 10:40:40;;;;;;;;;;;;;;;18.29;47.33;100479.66;5083309;28;1102;-56
2023/07/30 10:43:18;;;;;;;;;;;;;;;17.90;47.47;100491.56;5088138;28;1119;-56
2023/07/30 10:45:50;;;;;;;;;;;;;;;17.81;47.20;100490.56;5089375;28;1109;-56
2023/07/30 10:48:16;;;;;;;;;;;;;;;17.79;46.75;100480.69;5075913;28;1187;-56
2023/07/30 10:50:42;;;;;;;;;;;;;;;17.76;46.56;100494.19;5080701;28;1981;-56
2023/07/30 10:53:08;;;;;;;;;;;;;;;17.70;46.51;100479.66;5085817;28;1126;-57
2023/07/30 10:55:33;;;;;;;;;;;;;;;17.78;46.20;100476.28;5093826;28;1158;-56
2023/07/30 10:57:59;;;;;;;;;;;;;;;17.71;46.07;100481.31;5095884;28;1113;-56
2023/07/30 11:00:25;;;;;;;;;;;;;;;17.69;46.27;100472.50;5092851;28;1109;-56
2023/07/30 11:02:54;;;;;;;;;;;;;;;17.64;46.11;100464.28;5067605;28;1126;-56
2023/07/30 11:05:19;;;;;;;;;;;;;;;17.64;46.21;100478.03;5081348;28;1109;-56
2023/07/30 11:07:51;;;;;;;;;;;;;;;17.76;45.83;100466.69;5085117;28;1157;-59
2023/07/30 11:10:17;;;;;;;;;;;;;;;18.64;47.19;100466.56;5095273;28;1977;-61
2023/07/30 11:12:42;;;;;;;;;;;;;;;18.12;48.05;100472.69;5084611;28;1382;-57
2023/07/30 11:15:08;;;;;;;;;;;;;;;18.03;47.28;100460.66;5083014;28;1027;-53
2023/07/30 11:17:33;;;;;;;;;;;;;;;17.87;47.14;100464.66;5083296;28;1137;-55
2023/07/30 11:19:59;;;;;;;;;;;;;;;17.82;46.98;100464.69;5062239;28;1068;-55
2023/07/30 11:22:31;;;;;;;;;;;;;;;17.85;46.46;100473.19;5086535;28;1115;-56
2023/07/30 11:24:57;;;;;;;;;;;;;;;17.78;46.44;100458.94;5093420;28;1030;-56
2023/07/30 11:27:22;;;;;;;;;;;;;;;17.85;46.11;100461.38;5085115;28;1030;-55
2023/07/30 11:29:55;;;;;;;;;;;;;;;17.74;46.17;100468.88;5093445;28;1980;-56
2023/07/30 11:32:23;;;;;;;;;;;;;;;17.75;45.98;100456.78;5084653;28;1193;-56
2023/07/30 11:34:49;;;;;;;;;;;;;;;17.78;46.04;100454.28;5095005;28;1213;-56
2023/07/30 11:37:14;;;;;;;;;;;;;;;17.82;45.73;100461.94;5066019;28;893;-56
2023/07/30 11:39:40;;;;;;;;;;;;;;;17.76;45.74;100456.47;5070159;28;1068;-57
2023/07/30 11:42:06;;;;;;;;;;;;;;;17.71;45.90;100447.47;5071444;28;1084;-56
2023/07/30 11:44:37;;;;;;;;;;;;;;;17.75;45.64;100452.13;5065846;28;1352;-56
2023/07/30 11:47:04;;;;;;;;;;;;;;;17.69;46.02;100456.00;5095161;28;1125;-55
2023/07/30 11:49:29;;;;;;;;;;;;;;;17.75;45.63;100449.38;5095621;28;994;-56
2023/07/30 11:52:08;;;;;;;;;;;;;;;17.89;47.88;100448.66;5095988;28;1909;-55
2023/07/30 11:54:33;;;;;;;;;;;;;;;17.79;47.51;100457.84;5095054;28;1030;-56
2023/07/30 11:56:59;;;;;;;;;;;;;;;17.81;47.04;100452.03;5083365;28;1459;-59
2023/07/30 11:59:25;;;;;;;;;;;;;;;17.83;46.60;100441.59;5089474;28;1102;-58
2023/07/30 12:01:50;;;;;;;;;;;;;;;17.85;46.38;100442.09;5094390;28;1142;-57
2023/07/30 12:04:16;;;;;;;;;;;;;;;17.74;46.50;100442.22;5082285;28;1054;-57
2023/07/30 12:06:41;;;;;;;;;;;;;;;17.72;46.33;100430.66;5096145;28;1082;-56
2023/07/30 12:09:25;;;;;;;;;;;;;;;17.79;46.40;100438.59;5090259;28;1051;-56
2023/07/30 12:11:54;;;;;;;;;;;;;;;17.71;46.39;100425.47;5079296;28;1981;-58
2023/07/30 12:14:21;;;;;;;;;;;;;;;17.79;46.07;100433.94;5098916;28;946;-57
2023/07/30 12:16:46;;;;;;;;;;;;;;;17.82;46.52;100437.19;5099020;28;1109;-58
2023/07/30 12:19:12;;;;;;;;;;;;;;;18.22;47.80;100430.47;5099334;28;1109;-56
2023/07/30 12:21:38;;;;;;;;;;;;;;;17.99;47.62;100429.31;5085428;28;1109;-55
2023/07/30 12:24:03;;;;;;;;;;;;;;;17.89;47.21;100427.50;5090366;28;1061;-56
2023/07/30 12:26:29;;;;;;;;;;;;;;;17.91;46.74;100419.00;5093793;28;1003;-62
2023/07/30 12:28:54;;;;;;;;;;;;;;;17.87;46.53;100417.91;5091093;28;1179;-57
2023/07/30 12:31:20;;;;;;;;;;;;;;;17.84;46.35;100412.94;5079277;28;1979;-57
2023/07/30 12:33:45;;;;;;;;;;;;;;;17.83;46.18;100405.84;5087291;28;1102;-57
2023/07/30 12:36:11;;;;;;;;;;;;;;;17.83;45.83;100416.84;5098475;28;1026;-57
2023/07/30 12:38:37;;;;;;;;;;;;;;;17.77;45.90;100403.13;5099201;28;1169;-56
2023/07/30 12:41:02;;;;;;;;;;;;;;;17.76;45.98;100401.47;5099135;28;1206;-57